ISR825 LLBG-EYVI
Flight info
| Callsign | ISR825 |
|---|---|
| Flight time | N/A |
| Altitude | 35000 |
| Route | DAFNA DCT VELOX N71 DESPO DCT VESAR UB545 MUT UL619 MAKOL DCT MOBRA DCT RUTUV DCT KENIN DCT ETUBO DCT OFEDE DCT LIZUP DCT DIMTA |
| Aircraft | A320/M-SDE2FGHIJ1LORVWY/SB1 |
Departure
| Time | N/A |
|---|---|
| Airport | Ben Gurion International Airport (LLBG) |
Arrival
| Time | 2026-05-07 13:54 |
|---|---|
| Airport | Vilnius International Airport (EYVI) |
| Time | Latitude | Longitude | Altitude | Speed | Heading |
|---|---|---|---|---|---|
| 2026-05-07 13:25 | 53.81813 | 23.31246 | 35124 ft | 354 kts | 279° |
| 2026-05-07 13:26 | 53.82702 | 23.27340 | 34876 ft | 360 kts | 291° |
| 2026-05-07 13:26 | 53.84091 | 23.23780 | 34629 ft | 367 kts | 303° |
| 2026-05-07 13:26 | 53.85948 | 23.20743 | 34392 ft | 376 kts | 315° |
| 2026-05-07 13:26 | 53.88214 | 23.18425 | 34148 ft | 386 kts | 328° |
| 2026-05-07 13:27 | 53.90807 | 23.17018 | 33900 ft | 397 kts | 343° |
| 2026-05-07 13:27 | 53.93588 | 23.16673 | 33669 ft | 408 kts | 358° |
| 2026-05-07 13:27 | 53.96415 | 23.17495 | 33384 ft | 418 kts | 14° |
| 2026-05-07 13:27 | 53.99080 | 23.19528 | 33110 ft | 423 kts | 31° |
| 2026-05-07 13:28 | 54.01366 | 23.22664 | 32837 ft | 423 kts | 47° |
| 2026-05-07 13:28 | 54.03093 | 23.26596 | 32596 ft | 419 kts | 64° |
| 2026-05-07 13:28 | 54.04236 | 23.31109 | 32295 ft | 413 kts | 74° |
| 2026-05-07 13:28 | 54.05091 | 23.35762 | 32030 ft | 410 kts | 78° |
| 2026-05-07 13:29 | 54.05793 | 23.40446 | 31775 ft | 407 kts | 81° |
| 2026-05-07 13:29 | 54.06408 | 23.45135 | 31505 ft | 405 kts | 82° |
| 2026-05-07 13:29 | 54.06996 | 23.49810 | 31258 ft | 403 kts | 82° |
| 2026-05-07 13:29 | 54.07504 | 23.54476 | 30998 ft | 397 kts | 92° |
| 2026-05-07 13:30 | 54.07359 | 23.59068 | 30752 ft | 382 kts | 110° |
| 2026-05-07 13:30 | 54.06519 | 23.63250 | 30504 ft | 366 kts | 127° |
| 2026-05-07 13:30 | 54.05142 | 23.66703 | 30256 ft | 350 kts | 142° |
| 2026-05-07 13:30 | 54.03350 | 23.69339 | 30014 ft | 334 kts | 157° |
| 2026-05-07 13:31 | 54.01320 | 23.71048 | 29740 ft | 319 kts | 171° |
| 2026-05-07 13:31 | 53.99201 | 23.71836 | 29457 ft | 307 kts | 183° |
| 2026-05-07 13:31 | 53.97110 | 23.71782 | 29175 ft | 297 kts | 194° |
| 2026-05-07 13:31 | 53.95133 | 23.70979 | 28896 ft | 289 kts | 205° |
| 2026-05-07 13:32 | 53.93348 | 23.69502 | 28602 ft | 284 kts | 216° |
| 2026-05-07 13:32 | 53.91810 | 23.67448 | 28322 ft | 281 kts | 226° |
| 2026-05-07 13:32 | 53.90567 | 23.64911 | 28070 ft | 280 kts | 236° |
| 2026-05-07 13:32 | 53.89673 | 23.62037 | 27797 ft | 281 kts | 245° |
| 2026-05-07 13:33 | 53.89041 | 23.58904 | 27529 ft | 281 kts | 250° |
| 2026-05-07 13:33 | 53.88543 | 23.55699 | 27267 ft | 281 kts | 252° |
| 2026-05-07 13:33 | 53.88102 | 23.52472 | 27013 ft | 281 kts | 253° |
| 2026-05-07 13:33 | 53.87674 | 23.49254 | 26745 ft | 279 kts | 253° |
| 2026-05-07 13:34 | 53.87242 | 23.46051 | 26493 ft | 278 kts | 253° |
| 2026-05-07 13:34 | 53.86431 | 23.39659 | 25988 ft | 279 kts | 259° |
| 2026-05-07 13:34 | 53.86395 | 23.36362 | 25742 ft | 283 kts | 269° |
| 2026-05-07 13:35 | 53.86747 | 23.33103 | 25492 ft | 289 kts | 280° |
| 2026-05-07 13:35 | 53.87532 | 23.29932 | 25248 ft | 296 kts | 292° |
| 2026-05-07 13:35 | 53.88745 | 23.27059 | 25003 ft | 304 kts | 305° |
| 2026-05-07 13:35 | 53.90353 | 23.24662 | 24764 ft | 313 kts | 318° |
| 2026-05-07 13:36 | 53.92307 | 23.22917 | 24537 ft | 322 kts | 333° |
| 2026-05-07 13:36 | 53.94509 | 23.21995 | 24299 ft | 331 kts | 348° |
| 2026-05-07 13:36 | 53.96824 | 23.22020 | 24097 ft | 337 kts | 4° |
| 2026-05-07 13:36 | 53.99103 | 23.23048 | 24068 ft | 342 kts | 20° |
| 2026-05-07 13:37 | 54.00516 | 23.24266 | 24066 ft | 345 kts | 31° |
| 2026-05-07 13:37 | 54.02891 | 23.27853 | 24069 ft | 347 kts | 53° |
| 2026-05-07 13:37 | 54.04121 | 23.31356 | 24062 ft | 345 kts | 71° |
| 2026-05-07 13:37 | 54.04913 | 23.35193 | 24063 ft | 343 kts | 77° |
| 2026-05-07 13:38 | 54.05540 | 23.39105 | 24067 ft | 342 kts | 80° |
| 2026-05-07 13:38 | 54.06077 | 23.43047 | 24057 ft | 342 kts | 81° |
| 2026-05-07 13:38 | 54.06414 | 23.45665 | 24057 ft | 342 kts | 82° |
| 2026-05-07 13:38 | 54.06921 | 23.49617 | 24057 ft | 342 kts | 81° |
| 2026-05-07 13:39 | 54.07440 | 23.53575 | 24048 ft | 349 kts | 79° |
| 2026-05-07 13:39 | 54.08598 | 23.58990 | 23721 ft | 375 kts | 69° |
| 2026-05-07 13:39 | 54.09658 | 23.63041 | 23283 ft | 375 kts | 67° |
| 2026-05-07 13:39 | 54.10775 | 23.67061 | 22824 ft | 375 kts | 66° |
| 2026-05-07 13:40 | 54.11899 | 23.71058 | 22373 ft | 374 kts | 66° |
| 2026-05-07 13:40 | 54.13012 | 23.75067 | 21929 ft | 375 kts | 67° |
| 2026-05-07 13:40 | 54.13753 | 23.77795 | 21641 ft | 394 kts | 67° |
| 2026-05-07 13:40 | 54.14919 | 23.82175 | 21139 ft | 412 kts | 67° |
| 2026-05-07 13:41 | 54.16110 | 23.86709 | 20657 ft | 432 kts | 68° |
| 2026-05-07 13:41 | 54.17366 | 23.91536 | 20127 ft | 454 kts | 68° |
| 2026-05-07 13:41 | 54.19070 | 23.98099 | 19393 ft | 457 kts | 67° |
| 2026-05-07 13:41 | 54.20354 | 24.03037 | 18826 ft | 453 kts | 67° |
| 2026-05-07 13:42 | 54.21217 | 24.06354 | 18359 ft | 451 kts | 67° |
| 2026-05-07 13:42 | 54.22480 | 24.11217 | 17322 ft | 454 kts | 67° |
| 2026-05-07 13:42 | 54.23761 | 24.16157 | 16561 ft | 455 kts | 67° |
| 2026-05-07 13:42 | 54.25043 | 24.21116 | 16054 ft | 455 kts | 67° |
| 2026-05-07 13:43 | 54.26317 | 24.26054 | 15507 ft | 452 kts | 67° |
| 2026-05-07 13:43 | 54.27583 | 24.30957 | 14970 ft | 449 kts | 66° |
| 2026-05-07 13:43 | 54.29215 | 24.35469 | 14463 ft | 445 kts | 50° |
| 2026-05-07 13:43 | 54.31232 | 24.39489 | 13983 ft | 442 kts | 49° |
| 2026-05-07 13:44 | 54.33192 | 24.43359 | 13473 ft | 439 kts | 49° |
| 2026-05-07 13:44 | 54.35181 | 24.47290 | 12984 ft | 434 kts | 49° |
| 2026-05-07 13:44 | 54.37091 | 24.51074 | 12617 ft | 404 kts | 49° |
| 2026-05-07 13:44 | 54.38883 | 24.54633 | 11887 ft | 387 kts | 49° |
| 2026-05-07 13:45 | 54.40590 | 24.58156 | 11229 ft | 382 kts | 51° |
| 2026-05-07 13:45 | 54.42255 | 24.61616 | 10549 ft | 370 kts | 49° |
| 2026-05-07 13:45 | 54.43901 | 24.64919 | 9876 ft | 359 kts | 48° |
| 2026-05-07 13:45 | 54.45373 | 24.68293 | 9151 ft | 349 kts | 60° |
| 2026-05-07 13:46 | 54.46649 | 24.71772 | 8564 ft | 337 kts | 51° |
| 2026-05-07 13:46 | 54.48140 | 24.74691 | 8419 ft | 314 kts | 45° |
| 2026-05-07 13:46 | 54.49657 | 24.77287 | 8297 ft | 310 kts | 43° |
| 2026-05-07 13:46 | 54.51185 | 24.79878 | 8169 ft | 307 kts | 44° |
| 2026-05-07 13:47 | 54.52672 | 24.82516 | 8043 ft | 306 kts | 45° |
| 2026-05-07 13:47 | 54.54115 | 24.85210 | 7925 ft | 305 kts | 46° |
| 2026-05-07 13:47 | 54.55500 | 24.87922 | 7791 ft | 294 kts | 51° |
| 2026-05-07 13:47 | 54.56395 | 24.90965 | 7662 ft | 282 kts | 79° |
| 2026-05-07 13:48 | 54.56435 | 24.94283 | 7519 ft | 276 kts | 107° |
| 2026-05-07 13:48 | 54.55680 | 24.97257 | 7158 ft | 270 kts | 133° |
| 2026-05-07 13:48 | 54.54304 | 24.99336 | 6796 ft | 258 kts | 155° |
| 2026-05-07 13:48 | 54.52795 | 25.00916 | 6297 ft | 257 kts | 155° |
| 2026-05-07 13:49 | 54.51277 | 25.02510 | 5816 ft | 254 kts | 154° |
| 2026-05-07 13:49 | 54.49785 | 25.04099 | 5372 ft | 252 kts | 150° |
| 2026-05-07 13:49 | 54.48488 | 25.06151 | 4927 ft | 257 kts | 132° |
| 2026-05-07 13:49 | 54.47586 | 25.08804 | 4500 ft | 259 kts | 116° |
| 2026-05-07 13:50 | 54.46920 | 25.11658 | 4186 ft | 251 kts | 115° |
| 2026-05-07 13:50 | 54.46541 | 25.14512 | 3921 ft | 248 kts | 85° |
| 2026-05-07 13:50 | 54.47196 | 25.17145 | 3746 ft | 239 kts | 44° |
| 2026-05-07 13:50 | 54.48573 | 25.18526 | 3490 ft | 224 kts | 15° |
| 2026-05-07 13:51 | 54.49998 | 25.19371 | 3223 ft | 215 kts | 15° |
| 2026-05-07 13:51 | 54.51375 | 25.20273 | 2966 ft | 208 kts | 17° |
| 2026-05-07 13:51 | 54.52701 | 25.21179 | 2673 ft | 202 kts | 17° |
| 2026-05-07 13:51 | 54.53981 | 25.22060 | 2407 ft | 194 kts | 19° |
| 2026-05-07 13:52 | 54.55189 | 25.22894 | 2156 ft | 179 kts | 18° |
| 2026-05-07 13:52 | 54.56284 | 25.23652 | 1936 ft | 158 kts | 17° |
| 2026-05-07 13:52 | 54.57236 | 25.24312 | 1727 ft | 141 kts | 15° |
| 2026-05-07 13:52 | 54.58123 | 25.24921 | 1524 ft | 135 kts | 17° |
| 2026-05-07 13:53 | 54.58989 | 25.25518 | 1347 ft | 136 kts | 19° |
| 2026-05-07 13:53 | 54.59871 | 25.26131 | 1173 ft | 137 kts | 16° |
| 2026-05-07 13:53 | 54.60726 | 25.26742 | 965 ft | 134 kts | 17° |
| 2026-05-07 13:53 | 54.61570 | 25.27310 | 809 ft | 127 kts | 16° |
| 2026-05-07 13:54 | 54.62401 | 25.27875 | 642 ft | 131 kts | 17° |
| 2026-05-07 13:54 | 54.63186 | 25.28412 | 611 ft | 101 kts | 21° |
| 2026-05-07 13:54 | 54.63683 | 25.28762 | 626 ft | 55 kts | 21° |
| 2026-05-07 13:54 | 54.63986 | 25.28972 | 642 ft | 41 kts | 21° |
| 2026-05-07 13:55 | 54.64228 | 25.29135 | 653 ft | 27 kts | 25° |
| 2026-05-07 13:55 | 54.64390 | 25.29254 | 661 ft | 19 kts | 21° |
| 2026-05-07 13:55 | 54.64478 | 25.29197 | 656 ft | 13 kts | 294° |
| 2026-05-07 13:55 | 54.64500 | 25.29120 | 661 ft | 5 kts | 296° |
| 2026-05-07 13:56 | 54.64511 | 25.29082 | 657 ft | 3 kts | 296° |
| 2026-05-07 13:56 | 54.64517 | 25.29061 | 657 ft | 1 kts | 296° |
| 2026-05-07 13:56 | 54.64519 | 25.29048 | 657 ft | 0 kts | 278° |
| 2026-05-07 13:57 | 54.64514 | 25.29040 | 657 ft | 3 kts | 228° |
| 2026-05-07 13:57 | 54.64429 | 25.28976 | 657 ft | 21 kts | 202° |
| 2026-05-07 13:57 | 54.64278 | 25.28870 | 652 ft | 26 kts | 202° |
| 2026-05-07 13:57 | 54.64132 | 25.28737 | 648 ft | 24 kts | 235° |
| 2026-05-07 13:58 | 54.64118 | 25.28455 | 641 ft | 22 kts | 270° |
| 2026-05-07 13:58 | 54.64138 | 25.28333 | 640 ft | 8 kts | 349° |
| 2026-05-07 13:58 | 54.64177 | 25.28299 | 638 ft | 4 kts | 289° |
| 2026-05-07 13:58 | 54.64214 | 25.28280 | 638 ft | 8 kts | 359° |
| 2026-05-07 13:59 | 54.64243 | 25.28281 | 637 ft | 1 kts | 0° |
| 2026-05-07 13:59 | 54.64244 | 25.28281 | 637 ft | 0 kts | 0° |